Airfield :
LOGIN :

Register | Disclaimer

   EN    FR    IT 

 










Legend :    VFR   Marginal VFR   IFR   Intensive IFR   Very Intensive IFR
Visi :
Ceiling :
>= 8 km
>= 3000ft
5 to 8 km
1000 to 3000 ft
1500m to 5 km
500 to 1000 ft
800 to 1500m
200 to 500 ft
< 800m
< 200 ft
Symbols :   Thunderstorms  Fog  Heavy snow  Heavy precipitations  Wind > 20 kt
SIGMETs :     Misc.  Thunderstorms  Icing  Turbulence  Mountain Waves  Volcanic Ashes







- Airport Elevation : 63 ft
- IATA code : NTB


ENNO - Notodden

CURRENT METAR :
  • 191750Z 29003KT 9999 BKN024 M01/M01 Q1039

EXPIRED METARs :
  • 191650Z 28004KT 9999 BKN025 M01/M01 Q1039
  • 191550Z VRB01KT 9999 FEW002 BKN027 M01/M02 Q1039

Expired Forecast.
No reported NOTAMs for that airfield.
1 SIGMET reported for the Norway FIR (ENOR) :
 
Severe mountain waves
ENBD SIGMET D03 VALID 191500/191900 ENVN
ENOR NORWAY FIR SEV MTW FCST WI N6950 E01750 - N7120 E02730 - N7040 E03050 - N6800 E01710 - N6950 E01750 SFC/FL450 STNR INTSF=



MET'MAP, your aeronautical weather chart ! - Copyright ORBIFLY December 2007 - Disclaimer

ORBIFLY MET'MAP TEAM :

Programming & Development : Alexandra Zaïnal
Concept & Development : Baudouin d'Aumeries
Co-Development & Prog : Marc-Olivier Méhu
Technical & hardware support : Manuel Goepfert

Contact : metmap@orbifly.com




SOURCES & CREDITS :

   NOAA